Chalk, Texas
Current Conditions -  °F | °C
As of 6:53 AM on Monday 22 Dec 2014 (Local Time) from KCDS Reporting Station
Clear Clear  
Wind Chill: 39°   Ceiling: Unl
Heat Index: 44°   Visibility: 10mi
Dew Point: 32°   Wind: 9mph
Humidity: 63%   Direction: 310°NW
Pressure: 29.62"   Gusts: 22mph
Location:  33.87°N, 100.22°W
Report Text: KCDS 221253Z AUTO 31008G19KT 10SM CLR 07/00 A2962 RMK AO2 SLP024 T00670000
Loading
Personal Weather Stations






























Interactive Weather Map New forecast layout! Learn more

10-Day Weather Forecast

Advertisements
Track Severe Weather on mobile